sensor_id;sensor_type;location;lat;lon;timestamp;P1;durP1;ratioP1;P2;durP2;ratioP2
43626;SDS011;29217;52.586;13.442;2023-01-19T00:00:35;35.75;;;13.60;;
43626;SDS011;29217;52.586;13.442;2023-01-19T00:03:02;29.35;;;12.60;;
43626;SDS011;29217;52.586;13.442;2023-01-19T00:05:28;37.60;;;14.23;;
43626;SDS011;29217;52.586;13.442;2023-01-19T00:07:55;33.30;;;13.85;;
43626;SDS011;29217;52.586;13.442;2023-01-19T00:10:20;42.25;;;15.27;;
43626;SDS011;29217;52.586;13.442;2023-01-19T00:12:46;30.77;;;14.02;;
43626;SDS011;29217;52.586;13.442;2023-01-19T00:15:12;36.25;;;12.88;;
43626;SDS011;29217;52.586;13.442;2023-01-19T00:17:38;27.98;;;12.65;;
43626;SDS011;29217;52.586;13.442;2023-01-19T00:20:05;42.83;;;14.23;;
43626;SDS011;29217;52.586;13.442;2023-01-19T00:22:31;38.92;;;13.98;;
43626;SDS011;29217;52.586;13.442;2023-01-19T00:24:57;35.22;;;13.52;;
43626;SDS011;29217;52.586;13.442;2023-01-19T00:27:23;29.83;;;11.55;;
43626;SDS011;29217;52.586;13.442;2023-01-19T00:29:49;28.88;;;10.90;;
43626;SDS011;29217;52.586;13.442;2023-01-19T00:32:15;25.42;;;10.80;;
43626;SDS011;29217;52.586;13.442;2023-01-19T00:34:42;25.90;;;10.65;;
43626;SDS011;29217;52.586;13.442;2023-01-19T00:37:13;29.60;;;12.27;;
43626;SDS011;29217;52.586;13.442;2023-01-19T00:39:39;25.23;;;10.45;;
43626;SDS011;29217;52.586;13.442;2023-01-19T00:42:05;21.60;;;10.18;;
43626;SDS011;29217;52.586;13.442;2023-01-19T00:44:50;22.27;;;8.98;;
43626;SDS011;29217;52.586;13.442;2023-01-19T00:47:16;20.27;;;8.75;;
43626;SDS011;29217;52.586;13.442;2023-01-19T00:49:42;19.30;;;9.10;;
43626;SDS011;29217;52.586;13.442;2023-01-19T00:52:08;21.02;;;9.60;;
43626;SDS011;29217;52.586;13.442;2023-01-19T00:54:34;23.17;;;10.88;;
43626;SDS011;29217;52.586;13.442;2023-01-19T00:57:00;25.58;;;9.90;;
43626;SDS011;29217;52.586;13.442;2023-01-19T00:59:27;22.00;;;9.85;;
43626;SDS011;29217;52.586;13.442;2023-01-19T01:01:53;19.25;;;8.70;;
43626;SDS011;29217;52.586;13.442;2023-01-19T01:04:19;25.40;;;10.70;;
43626;SDS011;29217;52.586;13.442;2023-01-19T01:06:45;15.68;;;8.88;;
43626;SDS011;29217;52.586;13.442;2023-01-19T01:09:11;20.67;;;9.40;;
43626;SDS011;29217;52.586;13.442;2023-01-19T01:11:40;21.33;;;8.80;;
43626;SDS011;29217;52.586;13.442;2023-01-19T01:14:06;19.00;;;9.02;;
43626;SDS011;29217;52.586;13.442;2023-01-19T01:16:33;20.13;;;8.55;;
43626;SDS011;29217;52.586;13.442;2023-01-19T01:18:59;18.02;;;7.53;;
43626;SDS011;29217;52.586;13.442;2023-01-19T01:21:25;14.75;;;8.25;;
43626;SDS011;29217;52.586;13.442;2023-01-19T01:23:50;26.10;;;8.40;;
43626;SDS011;29217;52.586;13.442;2023-01-19T01:26:16;15.10;;;7.70;;
43626;SDS011;29217;52.586;13.442;2023-01-19T01:28:42;18.85;;;8.48;;
43626;SDS011;29217;52.586;13.442;2023-01-19T01:31:08;12.82;;;6.90;;
43626;SDS011;29217;52.586;13.442;2023-01-19T01:33:34;10.23;;;6.20;;
43626;SDS011;29217;52.586;13.442;2023-01-19T01:36:00;14.63;;;7.35;;
43626;SDS011;29217;52.586;13.442;2023-01-19T01:38:26;15.25;;;7.00;;
43626;SDS011;29217;52.586;13.442;2023-01-19T01:40:52;19.48;;;8.00;;
43626;SDS011;29217;52.586;13.442;2023-01-19T01:43:18;19.48;;;7.88;;
43626;SDS011;29217;52.586;13.442;2023-01-19T01:45:45;12.25;;;6.60;;
43626;SDS011;29217;52.586;13.442;2023-01-19T01:48:13;18.38;;;7.15;;
43626;SDS011;29217;52.586;13.442;2023-01-19T01:50:43;15.23;;;8.32;;
43626;SDS011;29217;52.586;13.442;2023-01-19T01:53:31;15.55;;;7.45;;
43626;SDS011;29217;52.586;13.442;2023-01-19T01:55:58;14.38;;;7.07;;
43626;SDS011;29217;52.586;13.442;2023-01-19T01:58:24;11.82;;;6.35;;
43626;SDS011;29217;52.586;13.442;2023-01-19T02:00:50;16.00;;;6.88;;
43626;SDS011;29217;52.586;13.442;2023-01-19T02:03:35;12.35;;;7.35;;
43626;SDS011;29217;52.586;13.442;2023-01-19T02:06:01;13.95;;;6.75;;
43626;SDS011;29217;52.586;13.442;2023-01-19T02:08:36;11.30;;;5.95;;
43626;SDS011;29217;52.586;13.442;2023-01-19T02:11:22;14.30;;;7.15;;
43626;SDS011;29217;52.586;13.442;2023-01-19T02:14:06;18.42;;;7.57;;
43626;SDS011;29217;52.586;13.442;2023-01-19T02:16:33;11.25;;;5.70;;
43626;SDS011;29217;52.586;13.442;2023-01-19T02:18:59;15.20;;;6.45;;
43626;SDS011;29217;52.586;13.442;2023-01-19T02:24:03;12.88;;;6.88;;
43626;SDS011;29217;52.586;13.442;2023-01-19T02:26:35;14.48;;;8.02;;
43626;SDS011;29217;52.586;13.442;2023-01-19T02:29:03;17.15;;;6.63;;
43626;SDS011;29217;52.586;13.442;2023-01-19T02:31:29;12.10;;;6.35;;
43626;SDS011;29217;52.586;13.442;2023-01-19T02:33:56;16.73;;;6.75;;
43626;SDS011;29217;52.586;13.442;2023-01-19T02:36:23;15.52;;;6.53;;
43626;SDS011;29217;52.586;13.442;2023-01-19T02:38:51;15.68;;;6.80;;
43626;SDS011;29217;52.586;13.442;2023-01-19T02:41:20;25.48;;;7.32;;
43626;SDS011;29217;52.586;13.442;2023-01-19T02:43:47;12.32;;;6.07;;
43626;SDS011;29217;52.586;13.442;2023-01-19T02:46:14;13.75;;;6.15;;
43626;SDS011;29217;52.586;13.442;2023-01-19T02:48:40;9.63;;;5.88;;
43626;SDS011;29217;52.586;13.442;2023-01-19T02:51:11;15.38;;;6.13;;
43626;SDS011;29217;52.586;13.442;2023-01-19T02:58:39;13.50;;;6.53;;
43626;SDS011;29217;52.586;13.442;2023-01-19T03:01:24;11.40;;;6.43;;
43626;SDS011;29217;52.586;13.442;2023-01-19T03:03:54;12.68;;;6.32;;
43626;SDS011;29217;52.586;13.442;2023-01-19T03:09:14;13.35;;;6.70;;
43626;SDS011;29217;52.586;13.442;2023-01-19T03:11:50;10.73;;;6.47;;
43626;SDS011;29217;52.586;13.442;2023-01-19T03:14:19;13.77;;;6.38;;
43626;SDS011;29217;52.586;13.442;2023-01-19T03:16:47;11.73;;;6.30;;
43626;SDS011;29217;52.586;13.442;2023-01-19T03:19:20;9.40;;;5.70;;
43626;SDS011;29217;52.586;13.442;2023-01-19T03:21:49;20.08;;;6.88;;
43626;SDS011;29217;52.586;13.442;2023-01-19T03:24:16;12.48;;;6.63;;
43626;SDS011;29217;52.586;13.442;2023-01-19T03:26:45;13.50;;;7.55;;
43626;SDS011;29217;52.586;13.442;2023-01-19T03:29:13;15.05;;;6.90;;
43626;SDS011;29217;52.586;13.442;2023-01-19T03:31:42;10.60;;;7.13;;
43626;SDS011;29217;52.586;13.442;2023-01-19T03:34:10;16.05;;;7.28;;
43626;SDS011;29217;52.586;13.442;2023-01-19T03:36:54;13.50;;;7.28;;
43626;SDS011;29217;52.586;13.442;2023-01-19T03:39:22;12.13;;;6.57;;
43626;SDS011;29217;52.586;13.442;2023-01-19T03:41:50;19.08;;;7.78;;
43626;SDS011;29217;52.586;13.442;2023-01-19T03:44:17;16.60;;;7.88;;
43626;SDS011;29217;52.586;13.442;2023-01-19T03:46:43;13.98;;;8.02;;
43626;SDS011;29217;52.586;13.442;2023-01-19T03:49:10;15.32;;;8.10;;
43626;SDS011;29217;52.586;13.442;2023-01-19T03:51:37;13.05;;;6.90;;
43626;SDS011;29217;52.586;13.442;2023-01-19T03:54:04;18.15;;;8.00;;
43626;SDS011;29217;52.586;13.442;2023-01-19T03:56:30;16.10;;;8.40;;
43626;SDS011;29217;52.586;13.442;2023-01-19T03:58:56;14.45;;;8.43;;
43626;SDS011;29217;52.586;13.442;2023-01-19T04:01:22;16.15;;;8.18;;
43626;SDS011;29217;52.586;13.442;2023-01-19T04:03:49;16.95;;;8.25;;
43626;SDS011;29217;52.586;13.442;2023-01-19T04:06:15;24.88;;;9.57;;
43626;SDS011;29217;52.586;13.442;2023-01-19T04:08:41;27.45;;;10.52;;
43626;SDS011;29217;52.586;13.442;2023-01-19T04:11:07;21.42;;;11.63;;
43626;SDS011;29217;52.586;13.442;2023-01-19T04:13:33;25.02;;;11.82;;
43626;SDS011;29217;52.586;13.442;2023-01-19T04:16:00;39.80;;;16.23;;
43626;SDS011;29217;52.586;13.442;2023-01-19T04:18:27;23.00;;;10.65;;
43626;SDS011;29217;52.586;13.442;2023-01-19T04:20:53;20.95;;;10.55;;
43626;SDS011;29217;52.586;13.442;2023-01-19T04:23:19;17.95;;;9.70;;
43626;SDS011;29217;52.586;13.442;2023-01-19T04:25:45;22.52;;;10.00;;
43626;SDS011;29217;52.586;13.442;2023-01-19T04:28:11;19.90;;;10.30;;
43626;SDS011;29217;52.586;13.442;2023-01-19T04:30:37;20.88;;;9.77;;
43626;SDS011;29217;52.586;13.442;2023-01-19T04:33:03;21.52;;;8.68;;
43626;SDS011;29217;52.586;13.442;2023-01-19T04:35:29;18.10;;;9.02;;
43626;SDS011;29217;52.586;13.442;2023-01-19T04:37:55;20.65;;;9.73;;
43626;SDS011;29217;52.586;13.442;2023-01-19T04:40:21;25.30;;;10.60;;
43626;SDS011;29217;52.586;13.442;2023-01-19T04:42:47;18.23;;;10.52;;
43626;SDS011;29217;52.586;13.442;2023-01-19T04:45:13;17.70;;;9.80;;
43626;SDS011;29217;52.586;13.442;2023-01-19T04:47:39;18.33;;;9.65;;
43626;SDS011;29217;52.586;13.442;2023-01-19T04:50:08;24.33;;;10.32;;
43626;SDS011;29217;52.586;13.442;2023-01-19T04:52:34;24.50;;;9.93;;
43626;SDS011;29217;52.586;13.442;2023-01-19T04:55:01;19.70;;;9.13;;
43626;SDS011;29217;52.586;13.442;2023-01-19T04:57:28;19.45;;;9.02;;
43626;SDS011;29217;52.586;13.442;2023-01-19T04:59:54;17.95;;;9.68;;
43626;SDS011;29217;52.586;13.442;2023-01-19T05:02:21;20.50;;;9.65;;
43626;SDS011;29217;52.586;13.442;2023-01-19T05:04:47;18.42;;;9.63;;
43626;SDS011;29217;52.586;13.442;2023-01-19T05:07:13;22.00;;;9.65;;
43626;SDS011;29217;52.586;13.442;2023-01-19T05:09:39;17.85;;;9.60;;
43626;SDS011;29217;52.586;13.442;2023-01-19T05:12:05;19.52;;;8.70;;
43626;SDS011;29217;52.586;13.442;2023-01-19T05:14:31;18.83;;;9.43;;
43626;SDS011;29217;52.586;13.442;2023-01-19T05:16:57;24.33;;;10.32;;
43626;SDS011;29217;52.586;13.442;2023-01-19T05:19:24;16.25;;;8.27;;
43626;SDS011;29217;52.586;13.442;2023-01-19T05:21:50;16.60;;;8.88;;
43626;SDS011;29217;52.586;13.442;2023-01-19T05:24:16;18.52;;;8.95;;
43626;SDS011;29217;52.586;13.442;2023-01-19T05:26:43;16.52;;;9.15;;
43626;SDS011;29217;52.586;13.442;2023-01-19T05:29:09;17.00;;;8.70;;
43626;SDS011;29217;52.586;13.442;2023-01-19T05:31:35;24.02;;;10.20;;
43626;SDS011;29217;52.586;13.442;2023-01-19T05:34:01;26.05;;;10.23;;
43626;SDS011;29217;52.586;13.442;2023-01-19T05:36:27;14.38;;;8.60;;
43626;SDS011;29217;52.586;13.442;2023-01-19T05:38:53;22.77;;;9.52;;
43626;SDS011;29217;52.586;13.442;2023-01-19T05:41:19;14.55;;;8.57;;
43626;SDS011;29217;52.586;13.442;2023-01-19T05:43:45;20.45;;;8.65;;
43626;SDS011;29217;52.586;13.442;2023-01-19T05:46:11;17.38;;;8.77;;
43626;SDS011;29217;52.586;13.442;2023-01-19T05:48:37;22.50;;;9.15;;
43626;SDS011;29217;52.586;13.442;2023-01-19T05:51:04;21.55;;;9.35;;
43626;SDS011;29217;52.586;13.442;2023-01-19T05:53:30;17.27;;;8.85;;
43626;SDS011;29217;52.586;13.442;2023-01-19T05:56:02;18.25;;;9.32;;
43626;SDS011;29217;52.586;13.442;2023-01-19T05:58:29;23.73;;;9.60;;
43626;SDS011;29217;52.586;13.442;2023-01-19T06:00:55;16.27;;;9.80;;
43626;SDS011;29217;52.586;13.442;2023-01-19T06:03:21;18.85;;;9.40;;
43626;SDS011;29217;52.586;13.442;2023-01-19T06:05:47;18.88;;;9.30;;
43626;SDS011;29217;52.586;13.442;2023-01-19T06:08:13;25.15;;;10.02;;
43626;SDS011;29217;52.586;13.442;2023-01-19T06:10:39;18.50;;;8.93;;
43626;SDS011;29217;52.586;13.442;2023-01-19T06:13:05;19.88;;;9.35;;
43626;SDS011;29217;52.586;13.442;2023-01-19T06:15:33;19.92;;;9.13;;
43626;SDS011;29217;52.586;13.442;2023-01-19T06:17:59;21.25;;;8.90;;
43626;SDS011;29217;52.586;13.442;2023-01-19T06:20:25;23.55;;;9.23;;
43626;SDS011;29217;52.586;13.442;2023-01-19T06:22:51;18.77;;;9.40;;
43626;SDS011;29217;52.586;13.442;2023-01-19T06:25:17;20.52;;;9.82;;
43626;SDS011;29217;52.586;13.442;2023-01-19T06:27:43;19.85;;;9.90;;
43626;SDS011;29217;52.586;13.442;2023-01-19T06:30:10;24.10;;;10.32;;
43626;SDS011;29217;52.586;13.442;2023-01-19T06:32:36;23.90;;;9.27;;
43626;SDS011;29217;52.586;13.442;2023-01-19T06:35:02;21.13;;;9.52;;
43626;SDS011;29217;52.586;13.442;2023-01-19T06:37:28;20.65;;;9.23;;
43626;SDS011;29217;52.586;13.442;2023-01-19T06:39:55;21.27;;;9.10;;
43626;SDS011;29217;52.586;13.442;2023-01-19T06:42:21;25.98;;;9.57;;
43626;SDS011;29217;52.586;13.442;2023-01-19T06:44:47;17.42;;;9.00;;
43626;SDS011;29217;52.586;13.442;2023-01-19T06:47:16;24.92;;;10.20;;
43626;SDS011;29217;52.586;13.442;2023-01-19T06:49:42;19.67;;;9.13;;
43626;SDS011;29217;52.586;13.442;2023-01-19T06:52:09;31.02;;;11.07;;
43626;SDS011;29217;52.586;13.442;2023-01-19T06:54:35;23.00;;;10.75;;
43626;SDS011;29217;52.586;13.442;2023-01-19T06:57:01;20.08;;;9.20;;
43626;SDS011;29217;52.586;13.442;2023-01-19T06:59:28;26.58;;;10.60;;
43626;SDS011;29217;52.586;13.442;2023-01-19T07:01:53;22.27;;;9.98;;
43626;SDS011;29217;52.586;13.442;2023-01-19T07:04:23;25.40;;;11.30;;
43626;SDS011;29217;52.586;13.442;2023-01-19T07:06:49;20.33;;;9.65;;
43626;SDS011;29217;52.586;13.442;2023-01-19T07:09:15;26.50;;;9.85;;
43626;SDS011;29217;52.586;13.442;2023-01-19T07:11:41;14.30;;;8.75;;
43626;SDS011;29217;52.586;13.442;2023-01-19T07:14:07;20.17;;;10.52;;
43626;SDS011;29217;52.586;13.442;2023-01-19T07:16:33;20.48;;;11.18;;
43626;SDS011;29217;52.586;13.442;2023-01-19T07:18:59;19.58;;;9.55;;
43626;SDS011;29217;52.586;13.442;2023-01-19T07:21:25;19.38;;;9.20;;
43626;SDS011;29217;52.586;13.442;2023-01-19T07:23:52;16.73;;;8.90;;
43626;SDS011;29217;52.586;13.442;2023-01-19T07:26:18;19.95;;;9.73;;
43626;SDS011;29217;52.586;13.442;2023-01-19T07:28:45;22.98;;;10.30;;
43626;SDS011;29217;52.586;13.442;2023-01-19T07:31:12;15.98;;;8.82;;
43626;SDS011;29217;52.586;13.442;2023-01-19T07:33:38;17.33;;;9.98;;
43626;SDS011;29217;52.586;13.442;2023-01-19T07:36:04;21.05;;;10.43;;
43626;SDS011;29217;52.586;13.442;2023-01-19T07:38:30;18.13;;;8.65;;
43626;SDS011;29217;52.586;13.442;2023-01-19T07:41:00;17.70;;;8.30;;
43626;SDS011;29217;52.586;13.442;2023-01-19T07:43:26;19.05;;;9.45;;
43626;SDS011;29217;52.586;13.442;2023-01-19T07:45:54;16.65;;;8.32;;
43626;SDS011;29217;52.586;13.442;2023-01-19T07:48:21;21.58;;;9.43;;
43626;SDS011;29217;52.586;13.442;2023-01-19T07:50:47;18.73;;;9.73;;
43626;SDS011;29217;52.586;13.442;2023-01-19T07:53:13;17.30;;;8.55;;
43626;SDS011;29217;52.586;13.442;2023-01-19T07:55:38;21.63;;;11.32;;
43626;SDS011;29217;52.586;13.442;2023-01-19T07:58:04;17.65;;;9.13;;
43626;SDS011;29217;52.586;13.442;2023-01-19T08:00:31;16.85;;;8.98;;
43626;SDS011;29217;52.586;13.442;2023-01-19T08:02:58;15.18;;;8.18;;
43626;SDS011;29217;52.586;13.442;2023-01-19T08:05:24;21.80;;;8.45;;
43626;SDS011;29217;52.586;13.442;2023-01-19T08:07:51;14.65;;;8.55;;
43626;SDS011;29217;52.586;13.442;2023-01-19T08:10:17;17.38;;;9.35;;
43626;SDS011;29217;52.586;13.442;2023-01-19T08:12:46;15.98;;;8.32;;
43626;SDS011;29217;52.586;13.442;2023-01-19T08:15:12;20.50;;;8.85;;
43626;SDS011;29217;52.586;13.442;2023-01-19T08:17:39;22.17;;;8.48;;
43626;SDS011;29217;52.586;13.442;2023-01-19T08:20:06;18.80;;;8.77;;
43626;SDS011;29217;52.586;13.442;2023-01-19T08:22:33;20.42;;;9.23;;
43626;SDS011;29217;52.586;13.442;2023-01-19T08:24:59;20.25;;;8.25;;
43626;SDS011;29217;52.586;13.442;2023-01-19T08:27:25;16.10;;;8.32;;
43626;SDS011;29217;52.586;13.442;2023-01-19T08:29:51;15.90;;;9.00;;
43626;SDS011;29217;52.586;13.442;2023-01-19T08:32:18;16.75;;;8.90;;
43626;SDS011;29217;52.586;13.442;2023-01-19T08:34:44;21.15;;;8.95;;
43626;SDS011;29217;52.586;13.442;2023-01-19T08:37:10;16.92;;;9.30;;
43626;SDS011;29217;52.586;13.442;2023-01-19T08:39:36;17.90;;;9.02;;
43626;SDS011;29217;52.586;13.442;2023-01-19T08:42:02;14.07;;;7.95;;
43626;SDS011;29217;52.586;13.442;2023-01-19T08:44:29;17.85;;;9.30;;
43626;SDS011;29217;52.586;13.442;2023-01-19T08:46:55;15.77;;;8.52;;
43626;SDS011;29217;52.586;13.442;2023-01-19T08:49:21;13.15;;;7.30;;
43626;SDS011;29217;52.586;13.442;2023-01-19T08:51:47;18.40;;;9.85;;
43626;SDS011;29217;52.586;13.442;2023-01-19T08:54:13;14.60;;;8.02;;
43626;SDS011;29217;52.586;13.442;2023-01-19T08:56:40;15.60;;;7.97;;
43626;SDS011;29217;52.586;13.442;2023-01-19T08:59:07;15.93;;;7.93;;
43626;SDS011;29217;52.586;13.442;2023-01-19T09:01:33;18.88;;;9.07;;
43626;SDS011;29217;52.586;13.442;2023-01-19T09:04:01;17.77;;;9.13;;
43626;SDS011;29217;52.586;13.442;2023-01-19T09:06:27;14.65;;;7.95;;
43626;SDS011;29217;52.586;13.442;2023-01-19T09:08:53;14.95;;;7.05;;
43626;SDS011;29217;52.586;13.442;2023-01-19T09:11:19;11.90;;;7.60;;
43626;SDS011;29217;52.586;13.442;2023-01-19T09:13:45;18.85;;;8.60;;
43626;SDS011;29217;52.586;13.442;2023-01-19T09:16:11;14.73;;;7.65;;
43626;SDS011;29217;52.586;13.442;2023-01-19T09:18:38;12.73;;;7.65;;
43626;SDS011;29217;52.586;13.442;2023-01-19T09:21:04;15.20;;;6.70;;
43626;SDS011;29217;52.586;13.442;2023-01-19T09:23:31;15.00;;;7.28;;
43626;SDS011;29217;52.586;13.442;2023-01-19T09:25:58;15.93;;;7.50;;
43626;SDS011;29217;52.586;13.442;2023-01-19T09:28:24;10.57;;;6.38;;
43626;SDS011;29217;52.586;13.442;2023-01-19T09:30:50;13.48;;;6.88;;
43626;SDS011;29217;52.586;13.442;2023-01-19T09:33:18;10.57;;;6.25;;
43626;SDS011;29217;52.586;13.442;2023-01-19T09:35:45;11.55;;;7.20;;
43626;SDS011;29217;52.586;13.442;2023-01-19T09:38:11;12.40;;;6.75;;
43626;SDS011;29217;52.586;13.442;2023-01-19T09:40:40;11.35;;;6.97;;
43626;SDS011;29217;52.586;13.442;2023-01-19T09:43:17;12.68;;;6.50;;
43626;SDS011;29217;52.586;13.442;2023-01-19T09:50:57;10.48;;;6.13;;
43626;SDS011;29217;52.586;13.442;2023-01-19T09:53:47;12.57;;;6.03;;
43626;SDS011;29217;52.586;13.442;2023-01-19T09:56:14;11.60;;;6.80;;
43626;SDS011;29217;52.586;13.442;2023-01-19T09:58:41;12.27;;;6.63;;
43626;SDS011;29217;52.586;13.442;2023-01-19T10:03:55;11.40;;;6.53;;
43626;SDS011;29217;52.586;13.442;2023-01-19T10:06:29;8.82;;;5.53;;
43626;SDS011;29217;52.586;13.442;2023-01-19T10:09:17;9.32;;;5.80;;
43626;SDS011;29217;52.586;13.442;2023-01-19T10:11:47;9.32;;;5.72;;
43626;SDS011;29217;52.586;13.442;2023-01-19T10:14:59;14.00;;;6.38;;
43626;SDS011;29217;52.586;13.442;2023-01-19T10:19:34;10.82;;;6.25;;
43626;SDS011;29217;52.586;13.442;2023-01-19T10:22:03;10.25;;;5.80;;
43626;SDS011;29217;52.586;13.442;2023-01-19T10:24:36;9.82;;;6.00;;
43626;SDS011;29217;52.586;13.442;2023-01-19T10:27:04;11.10;;;6.70;;
43626;SDS011;29217;52.586;13.442;2023-01-19T10:29:35;11.57;;;6.35;;
43626;SDS011;29217;52.586;13.442;2023-01-19T10:32:09;9.55;;;6.05;;
43626;SDS011;29217;52.586;13.442;2023-01-19T10:34:36;10.90;;;5.80;;
43626;SDS011;29217;52.586;13.442;2023-01-19T10:39:54;9.63;;;5.22;;
43626;SDS011;29217;52.586;13.442;2023-01-19T10:42:20;13.73;;;5.75;;
43626;SDS011;29217;52.586;13.442;2023-01-19T10:44:47;12.60;;;5.90;;
43626;SDS011;29217;52.586;13.442;2023-01-19T10:47:17;9.95;;;5.57;;
43626;SDS011;29217;52.586;13.442;2023-01-19T10:49:44;16.45;;;6.63;;
43626;SDS011;29217;52.586;13.442;2023-01-19T10:52:43;9.85;;;5.75;;
43626;SDS011;29217;52.586;13.442;2023-01-19T10:55:04;11.25;;;6.15;;
43626;SDS011;29217;52.586;13.442;2023-01-19T10:57:34;13.88;;;6.03;;
43626;SDS011;29217;52.586;13.442;2023-01-19T11:00:06;11.65;;;6.32;;
43626;SDS011;29217;52.586;13.442;2023-01-19T11:02:38;14.13;;;6.70;;
43626;SDS011;29217;52.586;13.442;2023-01-19T11:05:21;11.82;;;5.45;;
43626;SDS011;29217;52.586;13.442;2023-01-19T11:07:47;10.60;;;5.97;;
43626;SDS011;29217;52.586;13.442;2023-01-19T11:12:54;12.68;;;6.00;;
43626;SDS011;29217;52.586;13.442;2023-01-19T11:15:27;11.40;;;6.40;;
43626;SDS011;29217;52.586;13.442;2023-01-19T11:17:54;10.40;;;6.43;;
43626;SDS011;29217;52.586;13.442;2023-01-19T11:20:21;10.38;;;6.07;;
43626;SDS011;29217;52.586;13.442;2023-01-19T11:22:48;8.80;;;4.97;;
43626;SDS011;29217;52.586;13.442;2023-01-19T11:25:30;9.73;;;6.03;;
43626;SDS011;29217;52.586;13.442;2023-01-19T11:27:56;11.55;;;6.93;;
43626;SDS011;29217;52.586;13.442;2023-01-19T11:30:26;10.88;;;5.25;;
43626;SDS011;29217;52.586;13.442;2023-01-19T11:32:52;9.60;;;5.65;;
43626;SDS011;29217;52.586;13.442;2023-01-19T11:38:31;12.15;;;6.07;;
43626;SDS011;29217;52.586;13.442;2023-01-19T11:43:18;13.27;;;6.13;;
43626;SDS011;29217;52.586;13.442;2023-01-19T11:45:44;9.60;;;5.70;;
43626;SDS011;29217;52.586;13.442;2023-01-19T11:48:14;12.30;;;6.13;;
43626;SDS011;29217;52.586;13.442;2023-01-19T11:50:43;17.38;;;7.63;;
43626;SDS011;29217;52.586;13.442;2023-01-19T11:55:58;11.65;;;6.88;;
43626;SDS011;29217;52.586;13.442;2023-01-19T11:58:27;10.43;;;5.72;;
43626;SDS011;29217;52.586;13.442;2023-01-19T12:05:54;10.07;;;6.03;;
43626;SDS011;29217;52.586;13.442;2023-01-19T12:08:22;12.43;;;6.45;;
43626;SDS011;29217;52.586;13.442;2023-01-19T12:10:51;11.10;;;5.68;;
43626;SDS011;29217;52.586;13.442;2023-01-19T12:13:22;14.60;;;6.50;;
43626;SDS011;29217;52.586;13.442;2023-01-19T12:15:50;15.38;;;6.63;;
43626;SDS011;29217;52.586;13.442;2023-01-19T12:18:21;10.88;;;6.30;;
43626;SDS011;29217;52.586;13.442;2023-01-19T12:20:49;15.18;;;6.53;;
43626;SDS011;29217;52.586;13.442;2023-01-19T12:28:30;10.05;;;5.72;;
43626;SDS011;29217;52.586;13.442;2023-01-19T12:30:59;11.73;;;5.40;;
43626;SDS011;29217;52.586;13.442;2023-01-19T12:33:33;12.23;;;6.20;;
43626;SDS011;29217;52.586;13.442;2023-01-19T12:41:15;14.25;;;6.47;;
43626;SDS011;29217;52.586;13.442;2023-01-19T12:43:42;13.25;;;6.00;;
43626;SDS011;29217;52.586;13.442;2023-01-19T12:49:23;13.80;;;7.50;;
43626;SDS011;29217;52.586;13.442;2023-01-19T12:51:51;12.02;;;6.80;;
43626;SDS011;29217;52.586;13.442;2023-01-19T12:54:27;17.67;;;6.97;;
43626;SDS011;29217;52.586;13.442;2023-01-19T12:56:59;13.75;;;7.10;;
43626;SDS011;29217;52.586;13.442;2023-01-19T12:59:27;17.17;;;7.20;;
43626;SDS011;29217;52.586;13.442;2023-01-19T13:02:29;13.60;;;6.38;;
43626;SDS011;29217;52.586;13.442;2023-01-19T13:21:12;11.48;;;6.10;;
43626;SDS011;29217;52.586;13.442;2023-01-19T13:26:17;10.80;;;6.05;;
43626;SDS011;29217;52.586;13.442;2023-01-19T13:28:44;10.27;;;6.28;;
43626;SDS011;29217;52.586;13.442;2023-01-19T13:31:12;14.63;;;6.45;;
43626;SDS011;29217;52.586;13.442;2023-01-19T13:33:48;11.55;;;6.18;;
43626;SDS011;29217;52.586;13.442;2023-01-19T13:36:17;11.20;;;6.10;;
43626;SDS011;29217;52.586;13.442;2023-01-19T13:38:44;13.02;;;6.63;;
43626;SDS011;29217;52.586;13.442;2023-01-19T13:41:12;12.48;;;6.93;;
43626;SDS011;29217;52.586;13.442;2023-01-19T13:43:39;13.77;;;6.75;;
43626;SDS011;29217;52.586;13.442;2023-01-19T13:46:06;16.08;;;7.30;;
43626;SDS011;29217;52.586;13.442;2023-01-19T13:48:35;9.73;;;5.95;;
43626;SDS011;29217;52.586;13.442;2023-01-19T13:51:02;12.38;;;7.25;;
43626;SDS011;29217;52.586;13.442;2023-01-19T13:53:29;18.92;;;7.03;;
43626;SDS011;29217;52.586;13.442;2023-01-19T13:58:33;15.75;;;6.78;;
43626;SDS011;29217;52.586;13.442;2023-01-19T14:00:59;13.98;;;7.15;;
43626;SDS011;29217;52.586;13.442;2023-01-19T14:03:26;13.35;;;7.53;;
43626;SDS011;29217;52.586;13.442;2023-01-19T14:05:52;13.52;;;7.18;;
43626;SDS011;29217;52.586;13.442;2023-01-19T14:08:19;13.60;;;7.15;;
43626;SDS011;29217;52.586;13.442;2023-01-19T14:11:03;11.35;;;6.97;;
43626;SDS011;29217;52.586;13.442;2023-01-19T14:13:32;14.25;;;7.53;;
43626;SDS011;29217;52.586;13.442;2023-01-19T14:15:59;13.52;;;7.68;;
43626;SDS011;29217;52.586;13.442;2023-01-19T14:18:26;15.52;;;7.72;;
43626;SDS011;29217;52.586;13.442;2023-01-19T14:26:01;14.38;;;7.57;;
43626;SDS011;29217;52.586;13.442;2023-01-19T14:30:57;12.90;;;7.07;;
43626;SDS011;29217;52.586;13.442;2023-01-19T14:38:44;15.35;;;6.40;;
43626;SDS011;29217;52.586;13.442;2023-01-19T14:41:10;14.60;;;6.72;;
43626;SDS011;29217;52.586;13.442;2023-01-19T14:43:41;17.33;;;7.45;;
43626;SDS011;29217;52.586;13.442;2023-01-19T14:46:13;12.48;;;7.10;;
43626;SDS011;29217;52.586;13.442;2023-01-19T14:48:40;16.90;;;8.52;;
43626;SDS011;29217;52.586;13.442;2023-01-19T14:51:11;13.55;;;7.85;;
43626;SDS011;29217;52.586;13.442;2023-01-19T14:53:44;13.52;;;7.57;;
43626;SDS011;29217;52.586;13.442;2023-01-19T14:56:11;17.38;;;9.20;;
43626;SDS011;29217;52.586;13.442;2023-01-19T14:58:48;16.73;;;8.23;;
43626;SDS011;29217;52.586;13.442;2023-01-19T15:01:14;17.08;;;8.63;;
43626;SDS011;29217;52.586;13.442;2023-01-19T15:03:40;16.00;;;8.30;;
43626;SDS011;29217;52.586;13.442;2023-01-19T15:06:09;14.75;;;7.65;;
43626;SDS011;29217;52.586;13.442;2023-01-19T15:08:35;15.00;;;8.13;;
43626;SDS011;29217;52.586;13.442;2023-01-19T15:11:09;14.98;;;8.05;;
43626;SDS011;29217;52.586;13.442;2023-01-19T15:13:36;16.30;;;8.98;;
43626;SDS011;29217;52.586;13.442;2023-01-19T15:16:05;16.48;;;8.55;;
43626;SDS011;29217;52.586;13.442;2023-01-19T15:18:32;13.15;;;7.38;;
43626;SDS011;29217;52.586;13.442;2023-01-19T15:20:59;17.27;;;8.27;;
43626;SDS011;29217;52.586;13.442;2023-01-19T15:23:29;17.25;;;8.07;;
43626;SDS011;29217;52.586;13.442;2023-01-19T15:25:58;17.50;;;8.45;;
43626;SDS011;29217;52.586;13.442;2023-01-19T15:28:25;18.08;;;9.55;;
43626;SDS011;29217;52.586;13.442;2023-01-19T15:30:51;21.30;;;9.38;;
43626;SDS011;29217;52.586;13.442;2023-01-19T15:33:25;19.30;;;8.43;;
43626;SDS011;29217;52.586;13.442;2023-01-19T15:35:53;16.80;;;8.55;;
43626;SDS011;29217;52.586;13.442;2023-01-19T15:38:19;15.20;;;7.97;;
43626;SDS011;29217;52.586;13.442;2023-01-19T15:40:45;25.83;;;10.10;;
43626;SDS011;29217;52.586;13.442;2023-01-19T15:43:11;18.08;;;8.48;;
43626;SDS011;29217;52.586;13.442;2023-01-19T15:48:04;19.63;;;9.30;;
43626;SDS011;29217;52.586;13.442;2023-01-19T15:50:31;20.17;;;9.20;;
43626;SDS011;29217;52.586;13.442;2023-01-19T15:52:57;19.27;;;8.75;;
43626;SDS011;29217;52.586;13.442;2023-01-19T15:55:24;22.63;;;9.60;;